sensor_id;sensor_type;location;lat;lon;timestamp;P1;durP1;ratioP1;P2;durP2;ratioP2
24425;SDS011;12611;44.446;26.000;2022-12-07T00:01:43;28.50;;;10.27;;
24425;SDS011;12611;44.446;26.000;2022-12-07T00:04:13;25.23;;;10.13;;
24425;SDS011;12611;44.446;26.000;2022-12-07T00:06:44;25.73;;;9.73;;
24425;SDS011;12611;44.446;26.000;2022-12-07T00:09:14;30.83;;;10.73;;
24425;SDS011;12611;44.446;26.000;2022-12-07T00:11:44;23.73;;;9.17;;
24425;SDS011;12611;44.446;26.000;2022-12-07T00:14:16;23.43;;;9.83;;
24425;SDS011;12611;44.446;26.000;2022-12-07T00:16:46;24.60;;;10.20;;
24425;SDS011;12611;44.446;26.000;2022-12-07T00:19:17;27.13;;;10.67;;
24425;SDS011;12611;44.446;26.000;2022-12-07T00:21:46;25.73;;;9.73;;
24425;SDS011;12611;44.446;26.000;2022-12-07T00:24:14;36.33;;;12.37;;
24425;SDS011;12611;44.446;26.000;2022-12-07T00:26:46;27.37;;;11.73;;
24425;SDS011;12611;44.446;26.000;2022-12-07T00:29:15;34.23;;;11.43;;
24425;SDS011;12611;44.446;26.000;2022-12-07T00:31:47;27.93;;;10.40;;
24425;SDS011;12611;44.446;26.000;2022-12-07T00:34:19;28.30;;;11.80;;
24425;SDS011;12611;44.446;26.000;2022-12-07T00:36:49;29.23;;;9.97;;
24425;SDS011;12611;44.446;26.000;2022-12-07T00:39:27;22.57;;;9.70;;
24425;SDS011;12611;44.446;26.000;2022-12-07T00:41:55;28.20;;;10.33;;
24425;SDS011;12611;44.446;26.000;2022-12-07T00:44:23;24.80;;;10.90;;
24425;SDS011;12611;44.446;26.000;2022-12-07T00:46:53;30.47;;;11.53;;
24425;SDS011;12611;44.446;26.000;2022-12-07T00:49:22;29.03;;;10.47;;
24425;SDS011;12611;44.446;26.000;2022-12-07T00:51:52;28.97;;;11.53;;
24425;SDS011;12611;44.446;26.000;2022-12-07T00:54:26;29.53;;;10.63;;
24425;SDS011;12611;44.446;26.000;2022-12-07T00:56:54;29.07;;;10.97;;
24425;SDS011;12611;44.446;26.000;2022-12-07T00:59:22;26.60;;;9.50;;
24425;SDS011;12611;44.446;26.000;2022-12-07T01:01:51;34.30;;;12.27;;
24425;SDS011;12611;44.446;26.000;2022-12-07T01:04:20;31.50;;;12.53;;
24425;SDS011;12611;44.446;26.000;2022-12-07T01:06:51;33.70;;;12.97;;
24425;SDS011;12611;44.446;26.000;2022-12-07T01:09:21;32.37;;;11.77;;
24425;SDS011;12611;44.446;26.000;2022-12-07T01:11:50;34.63;;;12.57;;
24425;SDS011;12611;44.446;26.000;2022-12-07T01:14:19;37.83;;;12.00;;
24425;SDS011;12611;44.446;26.000;2022-12-07T01:16:50;31.67;;;11.67;;
24425;SDS011;12611;44.446;26.000;2022-12-07T01:19:20;28.67;;;11.50;;
24425;SDS011;12611;44.446;26.000;2022-12-07T01:21:54;32.63;;;12.33;;
24425;SDS011;12611;44.446;26.000;2022-12-07T01:24:22;32.67;;;12.73;;
24425;SDS011;12611;44.446;26.000;2022-12-07T01:26:51;34.33;;;11.47;;
24425;SDS011;12611;44.446;26.000;2022-12-07T01:29:19;29.97;;;10.23;;
24425;SDS011;12611;44.446;26.000;2022-12-07T01:31:48;30.87;;;11.57;;
24425;SDS011;12611;44.446;26.000;2022-12-07T01:34:16;30.53;;;12.00;;
24425;SDS011;12611;44.446;26.000;2022-12-07T01:36:46;31.10;;;11.73;;
24425;SDS011;12611;44.446;26.000;2022-12-07T01:39:17;30.87;;;12.73;;
24425;SDS011;12611;44.446;26.000;2022-12-07T01:41:45;29.73;;;12.23;;
24425;SDS011;12611;44.446;26.000;2022-12-07T01:44:15;29.87;;;12.40;;
24425;SDS011;12611;44.446;26.000;2022-12-07T01:46:46;30.53;;;12.33;;
24425;SDS011;12611;44.446;26.000;2022-12-07T01:49:16;35.70;;;13.40;;
24425;SDS011;12611;44.446;26.000;2022-12-07T01:51:51;31.17;;;13.17;;
24425;SDS011;12611;44.446;26.000;2022-12-07T01:54:27;35.00;;;12.13;;
24425;SDS011;12611;44.446;26.000;2022-12-07T01:56:56;30.47;;;12.60;;
24425;SDS011;12611;44.446;26.000;2022-12-07T01:59:28;32.20;;;11.07;;
24425;SDS011;12611;44.446;26.000;2022-12-07T02:01:57;29.50;;;11.83;;
24425;SDS011;12611;44.446;26.000;2022-12-07T02:04:25;27.47;;;12.40;;
24425;SDS011;12611;44.446;26.000;2022-12-07T02:06:56;28.83;;;11.23;;
24425;SDS011;12611;44.446;26.000;2022-12-07T02:09:28;34.47;;;12.70;;
24425;SDS011;12611;44.446;26.000;2022-12-07T02:11:56;31.70;;;11.73;;
24425;SDS011;12611;44.446;26.000;2022-12-07T02:14:25;30.57;;;12.00;;
24425;SDS011;12611;44.446;26.000;2022-12-07T02:16:57;28.33;;;12.37;;
24425;SDS011;12611;44.446;26.000;2022-12-07T02:25:50;31.70;;;12.40;;
24425;SDS011;12611;44.446;26.000;2022-12-07T02:28:34;30.30;;;12.23;;
24425;SDS011;12611;44.446;26.000;2022-12-07T02:31:08;32.22;;;14.68;;
24425;SDS011;12611;44.446;26.000;2022-12-07T02:33:45;32.00;;;12.63;;
24425;SDS011;12611;44.446;26.000;2022-12-07T02:36:19;31.20;;;13.10;;
24425;SDS011;12611;44.446;26.000;2022-12-07T02:38:54;29.30;;;12.20;;
24425;SDS011;12611;44.446;26.000;2022-12-07T02:41:28;30.40;;;12.17;;
24425;SDS011;12611;44.446;26.000;2022-12-07T02:44:02;29.30;;;13.33;;
24425;SDS011;12611;44.446;26.000;2022-12-07T02:46:36;29.17;;;11.73;;
24425;SDS011;12611;44.446;26.000;2022-12-07T02:49:08;27.80;;;12.23;;
24425;SDS011;12611;44.446;26.000;2022-12-07T02:51:38;28.73;;;11.70;;
24425;SDS011;12611;44.446;26.000;2022-12-07T02:54:09;31.93;;;12.03;;
24425;SDS011;12611;44.446;26.000;2022-12-07T02:56:43;26.80;;;10.40;;
24425;SDS011;12611;44.446;26.000;2022-12-07T02:59:21;25.20;;;10.83;;
24425;SDS011;12611;44.446;26.000;2022-12-07T03:02:02;27.03;;;11.53;;
24425;SDS011;12611;44.446;26.000;2022-12-07T03:04:42;29.27;;;11.30;;
24425;SDS011;12611;44.446;26.000;2022-12-07T03:07:20;24.97;;;10.70;;
24425;SDS011;12611;44.446;26.000;2022-12-07T03:09:59;27.37;;;10.63;;
24425;SDS011;12611;44.446;26.000;2022-12-07T03:12:43;27.30;;;11.13;;
24425;SDS011;12611;44.446;26.000;2022-12-07T03:15:16;26.10;;;10.70;;
24425;SDS011;12611;44.446;26.000;2022-12-07T03:17:51;29.80;;;12.30;;
24425;SDS011;12611;44.446;26.000;2022-12-07T03:20:21;26.00;;;11.20;;
24425;SDS011;12611;44.446;26.000;2022-12-07T03:23:00;25.93;;;10.83;;
24425;SDS011;12611;44.446;26.000;2022-12-07T03:25:32;23.40;;;10.20;;
24425;SDS011;12611;44.446;26.000;2022-12-07T03:28:03;25.10;;;10.60;;
24425;SDS011;12611;44.446;26.000;2022-12-07T03:30:35;26.97;;;10.87;;
24425;SDS011;12611;44.446;26.000;2022-12-07T03:33:15;25.57;;;10.20;;
24425;SDS011;12611;44.446;26.000;2022-12-07T03:35:50;23.87;;;9.73;;
24425;SDS011;12611;44.446;26.000;2022-12-07T03:38:27;26.10;;;10.73;;
24425;SDS011;12611;44.446;26.000;2022-12-07T03:41:08;22.73;;;9.40;;
24425;SDS011;12611;44.446;26.000;2022-12-07T03:43:44;26.00;;;10.30;;
24425;SDS011;12611;44.446;26.000;2022-12-07T03:46:15;23.10;;;10.30;;
24425;SDS011;12611;44.446;26.000;2022-12-07T03:48:50;21.40;;;10.37;;
24425;SDS011;12611;44.446;26.000;2022-12-07T03:51:30;24.97;;;10.73;;
24425;SDS011;12611;44.446;26.000;2022-12-07T03:54:06;27.67;;;10.20;;
24425;SDS011;12611;44.446;26.000;2022-12-07T03:56:39;23.20;;;8.97;;
24425;SDS011;12611;44.446;26.000;2022-12-07T03:59:08;26.10;;;12.57;;
24425;SDS011;12611;44.446;26.000;2022-12-07T04:01:38;22.73;;;9.50;;
24425;SDS011;12611;44.446;26.000;2022-12-07T04:04:10;24.20;;;10.43;;
24425;SDS011;12611;44.446;26.000;2022-12-07T04:06:38;20.17;;;8.93;;
24425;SDS011;12611;44.446;26.000;2022-12-07T04:09:06;24.30;;;9.67;;
24425;SDS011;12611;44.446;26.000;2022-12-07T04:11:35;19.50;;;9.87;;
24425;SDS011;12611;44.446;26.000;2022-12-07T04:14:03;24.23;;;9.83;;
24425;SDS011;12611;44.446;26.000;2022-12-07T04:16:47;29.37;;;10.73;;
24425;SDS011;12611;44.446;26.000;2022-12-07T04:19:18;23.70;;;9.63;;
24425;SDS011;12611;44.446;26.000;2022-12-07T04:21:49;24.13;;;9.63;;
24425;SDS011;12611;44.446;26.000;2022-12-07T04:24:20;22.60;;;9.47;;
24425;SDS011;12611;44.446;26.000;2022-12-07T04:27:07;25.23;;;9.33;;
24425;SDS011;12611;44.446;26.000;2022-12-07T04:29:37;26.83;;;10.53;;
24425;SDS011;12611;44.446;26.000;2022-12-07T04:32:06;27.97;;;9.40;;
24425;SDS011;12611;44.446;26.000;2022-12-07T04:34:35;22.73;;;9.80;;
24425;SDS011;12611;44.446;26.000;2022-12-07T04:37:04;26.73;;;10.27;;
24425;SDS011;12611;44.446;26.000;2022-12-07T04:39:32;21.07;;;9.77;;
24425;SDS011;12611;44.446;26.000;2022-12-07T04:42:01;20.67;;;8.90;;
24425;SDS011;12611;44.446;26.000;2022-12-07T04:44:53;23.17;;;10.63;;
24425;SDS011;12611;44.446;26.000;2022-12-07T04:47:25;23.63;;;10.33;;
24425;SDS011;12611;44.446;26.000;2022-12-07T04:49:58;23.52;;;10.23;;
24425;SDS011;12611;44.446;26.000;2022-12-07T04:52:28;23.70;;;9.80;;
24425;SDS011;12611;44.446;26.000;2022-12-07T04:54:58;21.23;;;8.87;;
24425;SDS011;12611;44.446;26.000;2022-12-07T04:57:38;22.40;;;8.80;;
24425;SDS011;12611;44.446;26.000;2022-12-07T05:00:07;20.57;;;9.33;;
24425;SDS011;12611;44.446;26.000;2022-12-07T05:02:44;20.97;;;9.07;;
24425;SDS011;12611;44.446;26.000;2022-12-07T05:08:05;23.97;;;10.57;;
24425;SDS011;12611;44.446;26.000;2022-12-07T05:10:33;22.77;;;9.60;;
24425;SDS011;12611;44.446;26.000;2022-12-07T05:13:02;23.67;;;8.87;;
24425;SDS011;12611;44.446;26.000;2022-12-07T05:15:30;20.17;;;9.03;;
24425;SDS011;12611;44.446;26.000;2022-12-07T05:17:59;22.87;;;9.87;;
24425;SDS011;12611;44.446;26.000;2022-12-07T05:20:34;20.73;;;9.57;;
24425;SDS011;12611;44.446;26.000;2022-12-07T05:23:07;25.33;;;10.37;;
24425;SDS011;12611;44.446;26.000;2022-12-07T05:25:36;23.97;;;10.20;;
24425;SDS011;12611;44.446;26.000;2022-12-07T05:28:04;22.37;;;8.80;;
24425;SDS011;12611;44.446;26.000;2022-12-07T05:30:33;22.53;;;10.20;;
24425;SDS011;12611;44.446;26.000;2022-12-07T05:33:01;25.73;;;10.70;;
24425;SDS011;12611;44.446;26.000;2022-12-07T05:35:30;26.13;;;10.30;;
24425;SDS011;12611;44.446;26.000;2022-12-07T05:38:01;22.63;;;10.40;;
24425;SDS011;12611;44.446;26.000;2022-12-07T05:40:29;25.27;;;10.07;;
24425;SDS011;12611;44.446;26.000;2022-12-07T05:42:57;29.13;;;10.30;;
24425;SDS011;12611;44.446;26.000;2022-12-07T05:45:30;24.53;;;10.00;;
24425;SDS011;12611;44.446;26.000;2022-12-07T05:47:58;22.63;;;9.80;;
24425;SDS011;12611;44.446;26.000;2022-12-07T05:50:26;24.07;;;9.73;;
24425;SDS011;12611;44.446;26.000;2022-12-07T05:52:55;23.57;;;10.83;;
24425;SDS011;12611;44.446;26.000;2022-12-07T05:55:25;24.97;;;10.50;;
24425;SDS011;12611;44.446;26.000;2022-12-07T05:57:53;24.33;;;9.57;;
24425;SDS011;12611;44.446;26.000;2022-12-07T06:00:38;24.53;;;10.30;;
24425;SDS011;12611;44.446;26.000;2022-12-07T06:03:06;26.37;;;10.33;;
24425;SDS011;12611;44.446;26.000;2022-12-07T06:05:35;26.07;;;10.73;;
24425;SDS011;12611;44.446;26.000;2022-12-07T06:08:03;24.47;;;10.47;;
24425;SDS011;12611;44.446;26.000;2022-12-07T06:10:33;22.60;;;9.47;;
24425;SDS011;12611;44.446;26.000;2022-12-07T06:13:01;21.57;;;9.40;;
24425;SDS011;12611;44.446;26.000;2022-12-07T06:15:29;24.17;;;9.73;;
24425;SDS011;12611;44.446;26.000;2022-12-07T06:17:57;27.10;;;10.93;;
24425;SDS011;12611;44.446;26.000;2022-12-07T06:20:25;25.37;;;11.13;;
24425;SDS011;12611;44.446;26.000;2022-12-07T06:22:53;27.27;;;10.03;;
24425;SDS011;12611;44.446;26.000;2022-12-07T06:25:22;24.60;;;10.77;;
24425;SDS011;12611;44.446;26.000;2022-12-07T06:27:51;27.90;;;9.00;;
24425;SDS011;12611;44.446;26.000;2022-12-07T06:30:21;23.03;;;9.73;;
24425;SDS011;12611;44.446;26.000;2022-12-07T06:32:50;27.53;;;9.97;;
24425;SDS011;12611;44.446;26.000;2022-12-07T06:35:18;27.03;;;9.77;;
24425;SDS011;12611;44.446;26.000;2022-12-07T06:37:47;26.23;;;11.00;;
24425;SDS011;12611;44.446;26.000;2022-12-07T06:40:15;21.00;;;8.93;;
24425;SDS011;12611;44.446;26.000;2022-12-07T06:42:43;22.17;;;9.30;;
24425;SDS011;12611;44.446;26.000;2022-12-07T06:45:13;24.27;;;9.07;;
24425;SDS011;12611;44.446;26.000;2022-12-07T06:47:41;22.03;;;9.17;;
24425;SDS011;12611;44.446;26.000;2022-12-07T06:50:12;28.17;;;10.80;;
24425;SDS011;12611;44.446;26.000;2022-12-07T06:52:40;22.50;;;10.07;;
24425;SDS011;12611;44.446;26.000;2022-12-07T06:55:11;23.43;;;10.60;;
24425;SDS011;12611;44.446;26.000;2022-12-07T06:57:40;20.47;;;9.30;;
24425;SDS011;12611;44.446;26.000;2022-12-07T07:00:08;24.73;;;9.93;;
24425;SDS011;12611;44.446;26.000;2022-12-07T07:02:50;26.30;;;9.20;;
24425;SDS011;12611;44.446;26.000;2022-12-07T07:05:20;21.97;;;9.87;;
24425;SDS011;12611;44.446;26.000;2022-12-07T07:07:56;19.23;;;8.77;;
24425;SDS011;12611;44.446;26.000;2022-12-07T07:10:48;20.50;;;8.80;;
24425;SDS011;12611;44.446;26.000;2022-12-07T07:13:17;19.47;;;8.53;;
24425;SDS011;12611;44.446;26.000;2022-12-07T07:15:45;20.40;;;9.30;;
24425;SDS011;12611;44.446;26.000;2022-12-07T07:18:15;21.47;;;8.80;;
24425;SDS011;12611;44.446;26.000;2022-12-07T07:20:43;19.60;;;9.03;;
24425;SDS011;12611;44.446;26.000;2022-12-07T07:23:11;18.90;;;8.87;;
24425;SDS011;12611;44.446;26.000;2022-12-07T07:25:40;23.27;;;9.53;;
24425;SDS011;12611;44.446;26.000;2022-12-07T07:28:08;19.87;;;9.17;;
24425;SDS011;12611;44.446;26.000;2022-12-07T07:30:37;20.20;;;7.83;;
24425;SDS011;12611;44.446;26.000;2022-12-07T07:33:09;20.43;;;9.20;;
24425;SDS011;12611;44.446;26.000;2022-12-07T07:35:39;18.77;;;8.03;;
24425;SDS011;12611;44.446;26.000;2022-12-07T07:38:08;21.80;;;8.20;;
24425;SDS011;12611;44.446;26.000;2022-12-07T07:40:36;19.17;;;8.60;;
24425;SDS011;12611;44.446;26.000;2022-12-07T07:43:04;20.23;;;8.57;;
24425;SDS011;12611;44.446;26.000;2022-12-07T07:45:33;19.10;;;8.53;;
24425;SDS011;12611;44.446;26.000;2022-12-07T07:48:01;17.83;;;8.53;;
24425;SDS011;12611;44.446;26.000;2022-12-07T07:50:31;16.43;;;7.57;;
24425;SDS011;12611;44.446;26.000;2022-12-07T07:53:01;16.03;;;6.97;;
24425;SDS011;12611;44.446;26.000;2022-12-07T07:55:29;15.10;;;7.77;;
24425;SDS011;12611;44.446;26.000;2022-12-07T07:57:57;19.53;;;8.43;;
24425;SDS011;12611;44.446;26.000;2022-12-07T08:00:25;14.73;;;8.20;;
24425;SDS011;12611;44.446;26.000;2022-12-07T08:02:56;17.27;;;7.93;;
24425;SDS011;12611;44.446;26.000;2022-12-07T08:05:25;15.60;;;7.77;;
24425;SDS011;12611;44.446;26.000;2022-12-07T08:07:53;19.37;;;7.73;;
24425;SDS011;12611;44.446;26.000;2022-12-07T08:10:24;15.67;;;7.40;;
24425;SDS011;12611;44.446;26.000;2022-12-07T08:12:52;18.27;;;8.60;;
24425;SDS011;12611;44.446;26.000;2022-12-07T08:15:40;16.97;;;8.00;;
24425;SDS011;12611;44.446;26.000;2022-12-07T08:18:10;14.03;;;7.60;;
24425;SDS011;12611;44.446;26.000;2022-12-07T08:20:39;16.20;;;7.43;;
24425;SDS011;12611;44.446;26.000;2022-12-07T08:23:08;17.27;;;7.80;;
24425;SDS011;12611;44.446;26.000;2022-12-07T08:25:39;13.77;;;6.97;;
24425;SDS011;12611;44.446;26.000;2022-12-07T08:28:09;16.17;;;7.97;;
24425;SDS011;12611;44.446;26.000;2022-12-07T08:30:37;17.13;;;8.20;;
24425;SDS011;12611;44.446;26.000;2022-12-07T08:33:06;18.27;;;7.97;;
24425;SDS011;12611;44.446;26.000;2022-12-07T08:35:34;15.00;;;7.47;;
24425;SDS011;12611;44.446;26.000;2022-12-07T08:38:02;15.40;;;8.20;;
24425;SDS011;12611;44.446;26.000;2022-12-07T08:40:30;13.83;;;7.23;;
24425;SDS011;12611;44.446;26.000;2022-12-07T08:43:00;16.10;;;7.87;;
24425;SDS011;12611;44.446;26.000;2022-12-07T08:45:28;17.67;;;7.80;;
24425;SDS011;12611;44.446;26.000;2022-12-07T08:48:00;17.63;;;8.30;;
24425;SDS011;12611;44.446;26.000;2022-12-07T08:50:31;15.15;;;7.43;;
24425;SDS011;12611;44.446;26.000;2022-12-07T08:53:00;16.57;;;7.30;;
24425;SDS011;12611;44.446;26.000;2022-12-07T08:55:30;14.17;;;7.10;;
24425;SDS011;12611;44.446;26.000;2022-12-07T08:58:02;14.63;;;6.90;;
24425;SDS011;12611;44.446;26.000;2022-12-07T09:00:31;13.00;;;6.20;;
24425;SDS011;12611;44.446;26.000;2022-12-07T09:02:59;17.30;;;8.07;;
24425;SDS011;12611;44.446;26.000;2022-12-07T09:05:27;16.43;;;7.67;;
24425;SDS011;12611;44.446;26.000;2022-12-07T09:07:56;17.63;;;8.37;;
24425;SDS011;12611;44.446;26.000;2022-12-07T09:10:27;16.40;;;8.13;;
24425;SDS011;12611;44.446;26.000;2022-12-07T09:12:55;18.27;;;7.60;;
24425;SDS011;12611;44.446;26.000;2022-12-07T09:15:28;18.50;;;8.03;;
24425;SDS011;12611;44.446;26.000;2022-12-07T09:17:57;18.23;;;9.50;;
24425;SDS011;12611;44.446;26.000;2022-12-07T09:20:26;17.07;;;8.07;;
24425;SDS011;12611;44.446;26.000;2022-12-07T09:22:54;17.87;;;8.33;;
24425;SDS011;12611;44.446;26.000;2022-12-07T09:25:22;17.60;;;8.53;;
24425;SDS011;12611;44.446;26.000;2022-12-07T09:27:54;17.17;;;7.03;;
24425;SDS011;12611;44.446;26.000;2022-12-07T09:30:24;17.10;;;7.83;;
24425;SDS011;12611;44.446;26.000;2022-12-07T09:32:56;18.67;;;8.03;;
24425;SDS011;12611;44.446;26.000;2022-12-07T09:35:25;14.97;;;7.43;;
24425;SDS011;12611;44.446;26.000;2022-12-07T09:37:54;15.83;;;7.20;;
24425;SDS011;12611;44.446;26.000;2022-12-07T09:40:27;17.13;;;7.90;;
24425;SDS011;12611;44.446;26.000;2022-12-07T09:42:55;14.87;;;6.93;;
24425;SDS011;12611;44.446;26.000;2022-12-07T09:45:24;17.20;;;7.57;;
24425;SDS011;12611;44.446;26.000;2022-12-07T09:47:59;14.67;;;7.30;;
24425;SDS011;12611;44.446;26.000;2022-12-07T09:50:42;16.53;;;7.37;;
24425;SDS011;12611;44.446;26.000;2022-12-07T09:53:13;19.03;;;8.73;;
24425;SDS011;12611;44.446;26.000;2022-12-07T09:55:50;21.23;;;10.27;;
24425;SDS011;12611;44.446;26.000;2022-12-07T09:58:20;19.73;;;10.50;;
24425;SDS011;12611;44.446;26.000;2022-12-07T10:00:50;16.80;;;8.70;;
24425;SDS011;12611;44.446;26.000;2022-12-07T10:03:25;18.63;;;8.50;;
24425;SDS011;12611;44.446;26.000;2022-12-07T10:05:54;21.13;;;9.13;;
24425;SDS011;12611;44.446;26.000;2022-12-07T10:08:24;25.60;;;9.87;;
24425;SDS011;12611;44.446;26.000;2022-12-07T10:10:54;20.83;;;9.23;;
24425;SDS011;12611;44.446;26.000;2022-12-07T10:13:33;20.43;;;9.30;;
24425;SDS011;12611;44.446;26.000;2022-12-07T10:16:04;21.53;;;9.10;;
24425;SDS011;12611;44.446;26.000;2022-12-07T10:18:35;22.17;;;10.43;;
24425;SDS011;12611;44.446;26.000;2022-12-07T10:21:08;18.50;;;8.77;;
24425;SDS011;12611;44.446;26.000;2022-12-07T10:23:40;17.50;;;9.10;;
24425;SDS011;12611;44.446;26.000;2022-12-07T10:26:20;28.30;;;10.70;;
24425;SDS011;12611;44.446;26.000;2022-12-07T10:28:54;19.03;;;8.27;;
24425;SDS011;12611;44.446;26.000;2022-12-07T10:31:30;14.93;;;6.97;;
24425;SDS011;12611;44.446;26.000;2022-12-07T10:34:14;19.17;;;8.47;;
24425;SDS011;12611;44.446;26.000;2022-12-07T10:36:48;17.03;;;8.17;;
24425;SDS011;12611;44.446;26.000;2022-12-07T10:39:17;16.20;;;7.10;;
24425;SDS011;12611;44.446;26.000;2022-12-07T10:41:53;15.33;;;6.73;;
24425;SDS011;12611;44.446;26.000;2022-12-07T10:44:24;15.37;;;6.83;;
24425;SDS011;12611;44.446;26.000;2022-12-07T10:47:06;16.27;;;6.60;;
24425;SDS011;12611;44.446;26.000;2022-12-07T10:53:11;16.00;;;8.07;;
24425;SDS011;12611;44.446;26.000;2022-12-07T10:56:05;14.50;;;8.20;;
24425;SDS011;12611;44.446;26.000;2022-12-07T10:59:03;15.83;;;7.37;;
24425;SDS011;12611;44.446;26.000;2022-12-07T11:01:51;17.97;;;8.30;;
24425;SDS011;12611;44.446;26.000;2022-12-07T11:04:31;19.10;;;8.80;;
24425;SDS011;12611;44.446;26.000;2022-12-07T11:07:06;21.33;;;8.23;;
24425;SDS011;12611;44.446;26.000;2022-12-07T11:09:53;18.97;;;9.33;;
24425;SDS011;12611;44.446;26.000;2022-12-07T11:12:38;19.07;;;8.23;;
24425;SDS011;12611;44.446;26.000;2022-12-07T11:15:17;20.57;;;9.07;;
24425;SDS011;12611;44.446;26.000;2022-12-07T11:17:49;16.83;;;7.37;;
24425;SDS011;12611;44.446;26.000;2022-12-07T11:20:29;16.93;;;7.97;;
24425;SDS011;12611;44.446;26.000;2022-12-07T11:23:13;15.17;;;7.70;;
24425;SDS011;12611;44.446;26.000;2022-12-07T11:25:50;19.87;;;8.20;;
24425;SDS011;12611;44.446;26.000;2022-12-07T11:28:29;15.93;;;7.47;;
24425;SDS011;12611;44.446;26.000;2022-12-07T11:31:12;18.43;;;9.43;;
24425;SDS011;12611;44.446;26.000;2022-12-07T11:33:56;17.83;;;9.00;;
24425;SDS011;12611;44.446;26.000;2022-12-07T11:36:36;17.07;;;8.60;;
24425;SDS011;12611;44.446;26.000;2022-12-07T11:39:23;18.63;;;8.67;;
24425;SDS011;12611;44.446;26.000;2022-12-07T11:41:56;23.93;;;8.90;;
24425;SDS011;12611;44.446;26.000;2022-12-07T11:44:32;17.60;;;8.33;;
24425;SDS011;12611;44.446;26.000;2022-12-07T11:47:05;19.90;;;7.93;;
24425;SDS011;12611;44.446;26.000;2022-12-07T11:49:47;22.97;;;9.57;;
24425;SDS011;12611;44.446;26.000;2022-12-07T11:52:22;18.43;;;8.27;;
24425;SDS011;12611;44.446;26.000;2022-12-07T11:54:59;25.57;;;9.80;;
24425;SDS011;12611;44.446;26.000;2022-12-07T11:57:31;23.57;;;9.40;;
24425;SDS011;12611;44.446;26.000;2022-12-07T12:00:06;20.07;;;8.93;;
24425;SDS011;12611;44.446;26.000;2022-12-07T12:02:43;26.33;;;10.23;;
24425;SDS011;12611;44.446;26.000;2022-12-07T12:05:17;25.43;;;9.40;;
24425;SDS011;12611;44.446;26.000;2022-12-07T12:07:49;21.70;;;8.60;;
24425;SDS011;12611;44.446;26.000;2022-12-07T12:10:53;20.50;;;9.17;;
24425;SDS011;12611;44.446;26.000;2022-12-07T12:13:43;21.33;;;8.60;;
24425;SDS011;12611;44.446;26.000;2022-12-07T12:16:56;18.90;;;8.60;;
24425;SDS011;12611;44.446;26.000;2022-12-07T12:19:40;19.83;;;8.90;;
24425;SDS011;12611;44.446;26.000;2022-12-07T12:22:12;16.70;;;7.80;;
24425;SDS011;12611;44.446;26.000;2022-12-07T12:24:44;19.47;;;8.73;;
24425;SDS011;12611;44.446;26.000;2022-12-07T12:27:20;23.80;;;9.23;;
24425;SDS011;12611;44.446;26.000;2022-12-07T12:29:53;21.33;;;8.83;;
24425;SDS011;12611;44.446;26.000;2022-12-07T12:32:30;18.43;;;8.33;;
24425;SDS011;12611;44.446;26.000;2022-12-07T12:35:33;19.77;;;8.23;;
24425;SDS011;12611;44.446;26.000;2022-12-07T12:41:00;25.27;;;10.57;;
24425;SDS011;12611;44.446;26.000;2022-12-07T12:46:38;21.90;;;9.33;;
24425;SDS011;12611;44.446;26.000;2022-12-07T12:58:32;23.00;;;9.47;;
24425;SDS011;12611;44.446;26.000;2022-12-07T13:04:17;19.27;;;9.80;;
24425;SDS011;12611;44.446;26.000;2022-12-07T13:07:04;22.33;;;10.33;;
24425;SDS011;12611;44.446;26.000;2022-12-07T13:09:36;19.93;;;9.43;;
24425;SDS011;12611;44.446;26.000;2022-12-07T13:12:12;18.63;;;9.93;;
24425;SDS011;12611;44.446;26.000;2022-12-07T13:14:53;20.53;;;9.93;;
24425;SDS011;12611;44.446;26.000;2022-12-07T13:20:45;23.27;;;9.80;;
24425;SDS011;12611;44.446;26.000;2022-12-07T13:23:19;20.30;;;9.07;;
24425;SDS011;12611;44.446;26.000;2022-12-07T13:25:54;23.13;;;10.07;;
24425;SDS011;12611;44.446;26.000;2022-12-07T13:28:32;21.70;;;9.50;;
24425;SDS011;12611;44.446;26.000;2022-12-07T13:33:58;21.30;;;9.10;;
24425;SDS011;12611;44.446;26.000;2022-12-07T13:36:29;24.73;;;9.33;;
24425;SDS011;12611;44.446;26.000;2022-12-07T13:39:10;18.03;;;9.03;;
24425;SDS011;12611;44.446;26.000;2022-12-07T13:41:48;16.17;;;8.80;;
24425;SDS011;12611;44.446;26.000;2022-12-07T13:44:19;23.97;;;9.90;;
24425;SDS011;12611;44.446;26.000;2022-12-07T13:46:53;19.57;;;8.70;;
24425;SDS011;12611;44.446;26.000;2022-12-07T13:49:28;19.73;;;9.40;;
24425;SDS011;12611;44.446;26.000;2022-12-07T13:52:12;21.47;;;9.77;;
24425;SDS011;12611;44.446;26.000;2022-12-07T13:54:43;19.80;;;9.73;;
24425;SDS011;12611;44.446;26.000;2022-12-07T13:57:16;22.67;;;10.23;;
24425;SDS011;12611;44.446;26.000;2022-12-07T13:59:45;23.77;;;10.60;;
24425;SDS011;12611;44.446;26.000;2022-12-07T14:02:18;27.30;;;13.25;;
24425;SDS011;12611;44.446;26.000;2022-12-07T14:04:49;24.93;;;10.90;;
24425;SDS011;12611;44.446;26.000;2022-12-07T14:07:30;24.50;;;10.83;;
24425;SDS011;12611;44.446;26.000;2022-12-07T14:10:02;25.50;;;10.93;;
24425;SDS011;12611;44.446;26.000;2022-12-07T14:12:32;24.97;;;10.10;;
24425;SDS011;12611;44.446;26.000;2022-12-07T14:15:04;21.90;;;10.20;;
24425;SDS011;12611;44.446;26.000;2022-12-07T14:17:34;23.50;;;11.70;;
24425;SDS011;12611;44.446;26.000;2022-12-07T14:20:03;21.83;;;10.10;;
24425;SDS011;12611;44.446;26.000;2022-12-07T14:22:53;25.37;;;11.10;;
24425;SDS011;12611;44.446;26.000;2022-12-07T14:25:24;17.93;;;8.97;;
24425;SDS011;12611;44.446;26.000;2022-12-07T14:27:54;21.67;;;10.57;;
24425;SDS011;12611;44.446;26.000;2022-12-07T14:30:25;20.57;;;9.70;;
24425;SDS011;12611;44.446;26.000;2022-12-07T14:32:57;21.07;;;10.20;;
24425;SDS011;12611;44.446;26.000;2022-12-07T14:35:31;22.60;;;9.90;;
24425;SDS011;12611;44.446;26.000;2022-12-07T14:38:01;22.70;;;10.60;;
24425;SDS011;12611;44.446;26.000;2022-12-07T14:40:29;24.73;;;11.50;;
24425;SDS011;12611;44.446;26.000;2022-12-07T14:43:00;19.80;;;10.73;;
24425;SDS011;12611;44.446;26.000;2022-12-07T14:45:33;24.67;;;10.53;;
24425;SDS011;12611;44.446;26.000;2022-12-07T14:48:01;25.20;;;11.50;;
24425;SDS011;12611;44.446;26.000;2022-12-07T14:50:51;23.37;;;11.63;;
24425;SDS011;12611;44.446;26.000;2022-12-07T14:53:43;26.77;;;11.60;;
24425;SDS011;12611;44.446;26.000;2022-12-07T14:56:22;25.07;;;10.93;;
24425;SDS011;12611;44.446;26.000;2022-12-07T14:58:53;25.43;;;11.57;;
24425;SDS011;12611;44.446;26.000;2022-12-07T15:01:24;21.40;;;11.27;;
24425;SDS011;12611;44.446;26.000;2022-12-07T15:03:56;27.70;;;11.67;;
24425;SDS011;12611;44.446;26.000;2022-12-07T15:06:24;24.97;;;10.63;;
24425;SDS011;12611;44.446;26.000;2022-12-07T15:08:54;24.57;;;11.87;;
24425;SDS011;12611;44.446;26.000;2022-12-07T15:11:40;22.90;;;10.00;;
24425;SDS011;12611;44.446;26.000;2022-12-07T15:14:10;24.43;;;11.27;;
24425;SDS011;12611;44.446;26.000;2022-12-07T15:16:39;21.67;;;10.43;;
24425;SDS011;12611;44.446;26.000;2022-12-07T15:22:19;25.10;;;10.93;;
24425;SDS011;12611;44.446;26.000;2022-12-07T15:24:48;21.27;;;10.50;;
24425;SDS011;12611;44.446;26.000;2022-12-07T15:27:17;25.80;;;10.77;;
24425;SDS011;12611;44.446;26.000;2022-12-07T15:29:45;23.33;;;11.07;;